French Corral, California
Current Conditions -  °F | °C
As of 6:28 PM on Saturday 22 Nov 2014 (Local Time) from KBAB Reporting Station
Clear Clear  
Wind Chill: 50°   Ceiling: Unl
Heat Index: 50°   Visibility: 7mi
Dew Point: 50°   Wind: 1mph
Humidity: 100%   Direction: 40°NE
Pressure: 30.18"   Gusts: NA
Location:  39.1816°N, 121.266°W
Report Text: KBAB 230228Z AUTO 04001KT 7SM R15/5000FT CLR 10/10 A3018 RMK AO2
Loading
Personal Weather Stations






























Interactive Weather Map New forecast layout! Learn more

10-Day Weather Forecast

Advertisements
Track Severe Weather on mobile